sensor_id;sensor_type;location;lat;lon;timestamp;temperature;humidity
52869;DHT22;39100;53.480;6.158;2022-12-29T00:00:06;9.40;99.90
52869;DHT22;39100;53.480;6.158;2022-12-29T00:02:32;9.30;99.90
52869;DHT22;39100;53.480;6.158;2022-12-29T00:04:57;9.40;99.90
52869;DHT22;39100;53.480;6.158;2022-12-29T00:07:23;9.40;99.90
52869;DHT22;39100;53.480;6.158;2022-12-29T00:09:48;9.40;99.90
52869;DHT22;39100;53.480;6.158;2022-12-29T00:12:14;9.40;99.90
52869;DHT22;39100;53.480;6.158;2022-12-29T00:14:39;9.50;99.90
52869;DHT22;39100;53.480;6.158;2022-12-29T00:17:23;9.50;99.90
52869;DHT22;39100;53.480;6.158;2022-12-29T00:19:49;9.50;99.90
52869;DHT22;39100;53.480;6.158;2022-12-29T00:22:33;9.50;99.90
52869;DHT22;39100;53.480;6.158;2022-12-29T00:25:18;9.50;99.90
52869;DHT22;39100;53.480;6.158;2022-12-29T00:28:02;9.60;99.90
52869;DHT22;39100;53.480;6.158;2022-12-29T00:30:46;9.60;99.90
52869;DHT22;39100;53.480;6.158;2022-12-29T00:33:32;9.50;99.90
52869;DHT22;39100;53.480;6.158;2022-12-29T00:36:23;9.50;99.90
52869;DHT22;39100;53.480;6.158;2022-12-29T00:38:59;9.40;99.90
52869;DHT22;39100;53.480;6.158;2022-12-29T00:41:44;9.40;99.90
52869;DHT22;39100;53.480;6.158;2022-12-29T00:44:29;9.40;99.90
52869;DHT22;39100;53.480;6.158;2022-12-29T00:46:54;9.30;99.90
52869;DHT22;39100;53.480;6.158;2022-12-29T00:49:20;9.30;99.90
52869;DHT22;39100;53.480;6.158;2022-12-29T00:54:31;9.20;99.90
52869;DHT22;39100;53.480;6.158;2022-12-29T00:56:57;9.20;99.90
52869;DHT22;39100;53.480;6.158;2022-12-29T00:59:23;9.20;99.90
52869;DHT22;39100;53.480;6.158;2022-12-29T01:01:50;9.30;99.90
52869;DHT22;39100;53.480;6.158;2022-12-29T01:04:15;9.20;99.90
52869;DHT22;39100;53.480;6.158;2022-12-29T01:06:41;9.30;99.90
52869;DHT22;39100;53.480;6.158;2022-12-29T01:09:08;9.20;99.90
52869;DHT22;39100;53.480;6.158;2022-12-29T01:11:53;9.20;99.90
52869;DHT22;39100;53.480;6.158;2022-12-29T01:14:19;9.20;99.90
52869;DHT22;39100;53.480;6.158;2022-12-29T01:16:45;9.20;99.90
52869;DHT22;39100;53.480;6.158;2022-12-29T01:19:12;9.20;99.90
52869;DHT22;39100;53.480;6.158;2022-12-29T01:21:37;9.10;99.90
52869;DHT22;39100;53.480;6.158;2022-12-29T01:24:03;9.10;99.90
52869;DHT22;39100;53.480;6.158;2022-12-29T01:26:29;9.10;99.90
52869;DHT22;39100;53.480;6.158;2022-12-29T01:28:54;9.20;99.90
52869;DHT22;39100;53.480;6.158;2022-12-29T01:31:20;9.10;99.90
52869;DHT22;39100;53.480;6.158;2022-12-29T01:33:45;9.10;99.90
52869;DHT22;39100;53.480;6.158;2022-12-29T01:36:13;9.10;99.90
52869;DHT22;39100;53.480;6.158;2022-12-29T01:38:40;9.10;99.90
52869;DHT22;39100;53.480;6.158;2022-12-29T01:41:07;9.10;99.90
52869;DHT22;39100;53.480;6.158;2022-12-29T01:46:28;9.10;99.90
52869;DHT22;39100;53.480;6.158;2022-12-29T01:49:22;9.10;99.90
52869;DHT22;39100;53.480;6.158;2022-12-29T01:51:52;9.10;99.90
52869;DHT22;39100;53.480;6.158;2022-12-29T01:54:30;9.10;99.90
52869;DHT22;39100;53.480;6.158;2022-12-29T01:57:00;9.10;99.90
52869;DHT22;39100;53.480;6.158;2022-12-29T01:59:30;9.20;99.90
52869;DHT22;39100;53.480;6.158;2022-12-29T02:01:58;9.10;99.90
52869;DHT22;39100;53.480;6.158;2022-12-29T02:04:24;9.10;99.90
52869;DHT22;39100;53.480;6.158;2022-12-29T02:06:55;9.20;99.90
52869;DHT22;39100;53.480;6.158;2022-12-29T02:09:22;9.20;99.90
52869;DHT22;39100;53.480;6.158;2022-12-29T02:11:49;9.20;99.90
52869;DHT22;39100;53.480;6.158;2022-12-29T02:14:14;9.20;99.90
52869;DHT22;39100;53.480;6.158;2022-12-29T02:19:47;9.30;99.90
52869;DHT22;39100;53.480;6.158;2022-12-29T02:25:26;9.30;99.90
52869;DHT22;39100;53.480;6.158;2022-12-29T02:33:19;9.30;99.90
52869;DHT22;39100;53.480;6.158;2022-12-29T02:39:10;9.30;99.90
52869;DHT22;39100;53.480;6.158;2022-12-29T02:41:58;9.30;99.90
52869;DHT22;39100;53.480;6.158;2022-12-29T02:44:52;9.30;99.90
52869;DHT22;39100;53.480;6.158;2022-12-29T02:50:01;9.20;99.90
52869;DHT22;39100;53.480;6.158;2022-12-29T02:52:35;9.20;99.90
52869;DHT22;39100;53.480;6.158;2022-12-29T02:55:03;9.20;99.90
52869;DHT22;39100;53.480;6.158;2022-12-29T02:57:34;9.10;99.90
52869;DHT22;39100;53.480;6.158;2022-12-29T03:02:50;9.10;99.90
52869;DHT22;39100;53.480;6.158;2022-12-29T03:05:30;9.00;99.90
52869;DHT22;39100;53.480;6.158;2022-12-29T03:17:39;8.90;99.90
52869;DHT22;39100;53.480;6.158;2022-12-29T03:20:08;9.00;99.90
52869;DHT22;39100;53.480;6.158;2022-12-29T03:22:42;9.00;99.90
52869;DHT22;39100;53.480;6.158;2022-12-29T03:25:13;8.90;99.90
52869;DHT22;39100;53.480;6.158;2022-12-29T03:27:50;8.90;99.90
52869;DHT22;39100;53.480;6.158;2022-12-29T03:30:16;9.00;99.90
52869;DHT22;39100;53.480;6.158;2022-12-29T03:32:50;9.00;99.90
52869;DHT22;39100;53.480;6.158;2022-12-29T03:35:21;9.00;99.90
52869;DHT22;39100;53.480;6.158;2022-12-29T03:38:02;9.00;99.90
52869;DHT22;39100;53.480;6.158;2022-12-29T03:40:28;9.00;99.90
52869;DHT22;39100;53.480;6.158;2022-12-29T03:42:55;9.00;99.90
52869;DHT22;39100;53.480;6.158;2022-12-29T03:45:21;9.00;99.90
52869;DHT22;39100;53.480;6.158;2022-12-29T03:47:47;9.00;99.90
52869;DHT22;39100;53.480;6.158;2022-12-29T03:50:13;9.00;99.90
52869;DHT22;39100;53.480;6.158;2022-12-29T03:52:39;9.00;99.90
52869;DHT22;39100;53.480;6.158;2022-12-29T03:55:05;8.90;99.90
52869;DHT22;39100;53.480;6.158;2022-12-29T03:57:31;8.90;99.90
52869;DHT22;39100;53.480;6.158;2022-12-29T03:59:57;8.80;99.90
52869;DHT22;39100;53.480;6.158;2022-12-29T04:02:22;8.80;99.90
52869;DHT22;39100;53.480;6.158;2022-12-29T04:04:49;8.70;99.90
52869;DHT22;39100;53.480;6.158;2022-12-29T04:07:15;8.70;99.90
52869;DHT22;39100;53.480;6.158;2022-12-29T04:09:40;8.60;99.90
52869;DHT22;39100;53.480;6.158;2022-12-29T04:12:06;8.60;99.90
52869;DHT22;39100;53.480;6.158;2022-12-29T04:14:32;8.60;99.90
52869;DHT22;39100;53.480;6.158;2022-12-29T04:16:57;8.60;99.90
52869;DHT22;39100;53.480;6.158;2022-12-29T04:19:23;8.70;99.90
52869;DHT22;39100;53.480;6.158;2022-12-29T04:21:49;8.50;99.90
52869;DHT22;39100;53.480;6.158;2022-12-29T04:24:15;8.50;99.90
52869;DHT22;39100;53.480;6.158;2022-12-29T04:26:41;8.50;99.90
52869;DHT22;39100;53.480;6.158;2022-12-29T04:29:07;8.50;99.90
52869;DHT22;39100;53.480;6.158;2022-12-29T04:31:33;8.50;99.90
52869;DHT22;39100;53.480;6.158;2022-12-29T04:33:59;8.50;99.90
52869;DHT22;39100;53.480;6.158;2022-12-29T04:36:25;8.50;99.90
52869;DHT22;39100;53.480;6.158;2022-12-29T04:38:51;8.50;99.90
52869;DHT22;39100;53.480;6.158;2022-12-29T04:41:17;8.50;99.90
52869;DHT22;39100;53.480;6.158;2022-12-29T04:43:42;8.50;99.90
52869;DHT22;39100;53.480;6.158;2022-12-29T04:46:08;8.40;99.90
52869;DHT22;39100;53.480;6.158;2022-12-29T04:48:34;8.40;99.90
52869;DHT22;39100;53.480;6.158;2022-12-29T04:50:59;8.40;99.90
52869;DHT22;39100;53.480;6.158;2022-12-29T04:53:25;8.40;99.90
52869;DHT22;39100;53.480;6.158;2022-12-29T04:55:52;8.40;99.90
52869;DHT22;39100;53.480;6.158;2022-12-29T04:58:18;8.40;99.90
52869;DHT22;39100;53.480;6.158;2022-12-29T05:00:44;8.40;99.90
52869;DHT22;39100;53.480;6.158;2022-12-29T05:03:10;8.30;99.90
52869;DHT22;39100;53.480;6.158;2022-12-29T05:05:36;8.30;99.90
52869;DHT22;39100;53.480;6.158;2022-12-29T05:08:01;8.30;99.90
52869;DHT22;39100;53.480;6.158;2022-12-29T05:10:27;8.30;99.90
52869;DHT22;39100;53.480;6.158;2022-12-29T05:12:52;8.30;99.90
52869;DHT22;39100;53.480;6.158;2022-12-29T05:15:18;8.30;99.90
52869;DHT22;39100;53.480;6.158;2022-12-29T05:17:44;8.30;99.90
52869;DHT22;39100;53.480;6.158;2022-12-29T05:20:10;8.30;99.90
52869;DHT22;39100;53.480;6.158;2022-12-29T05:22:35;8.20;99.90
52869;DHT22;39100;53.480;6.158;2022-12-29T05:25:01;8.20;99.90
52869;DHT22;39100;53.480;6.158;2022-12-29T05:27:27;8.20;99.90
52869;DHT22;39100;53.480;6.158;2022-12-29T05:29:53;8.20;99.90
52869;DHT22;39100;53.480;6.158;2022-12-29T05:32:18;8.20;99.90
52869;DHT22;39100;53.480;6.158;2022-12-29T05:34:44;8.20;99.90
52869;DHT22;39100;53.480;6.158;2022-12-29T05:37:10;8.20;99.90
52869;DHT22;39100;53.480;6.158;2022-12-29T05:39:35;8.20;99.90
52869;DHT22;39100;53.480;6.158;2022-12-29T05:42:01;8.30;99.90
52869;DHT22;39100;53.480;6.158;2022-12-29T05:44:26;8.30;99.90
52869;DHT22;39100;53.480;6.158;2022-12-29T05:46:52;8.30;99.90
52869;DHT22;39100;53.480;6.158;2022-12-29T05:49:18;8.30;99.90
52869;DHT22;39100;53.480;6.158;2022-12-29T05:51:43;8.30;99.90
52869;DHT22;39100;53.480;6.158;2022-12-29T05:54:09;8.30;99.90
52869;DHT22;39100;53.480;6.158;2022-12-29T05:56:34;8.40;99.90
52869;DHT22;39100;53.480;6.158;2022-12-29T05:59:00;8.40;99.90
52869;DHT22;39100;53.480;6.158;2022-12-29T06:01:25;8.30;99.90
52869;DHT22;39100;53.480;6.158;2022-12-29T06:03:51;8.30;99.90
52869;DHT22;39100;53.480;6.158;2022-12-29T06:06:17;8.30;99.90
52869;DHT22;39100;53.480;6.158;2022-12-29T06:08:42;8.30;99.90
52869;DHT22;39100;53.480;6.158;2022-12-29T06:11:08;8.30;99.90
52869;DHT22;39100;53.480;6.158;2022-12-29T06:13:34;8.40;99.90
52869;DHT22;39100;53.480;6.158;2022-12-29T06:16:00;8.40;99.90
52869;DHT22;39100;53.480;6.158;2022-12-29T06:18:25;8.40;99.90
52869;DHT22;39100;53.480;6.158;2022-12-29T06:20:51;8.40;99.90
52869;DHT22;39100;53.480;6.158;2022-12-29T06:23:17;8.40;99.90
52869;DHT22;39100;53.480;6.158;2022-12-29T06:25:44;8.40;99.90
52869;DHT22;39100;53.480;6.158;2022-12-29T06:28:09;8.30;99.90
52869;DHT22;39100;53.480;6.158;2022-12-29T06:30:36;8.30;99.90
52869;DHT22;39100;53.480;6.158;2022-12-29T06:33:01;8.30;99.90
52869;DHT22;39100;53.480;6.158;2022-12-29T06:35:27;8.30;99.90
52869;DHT22;39100;53.480;6.158;2022-12-29T06:37:53;8.30;99.90
52869;DHT22;39100;53.480;6.158;2022-12-29T06:40:18;8.30;99.90
52869;DHT22;39100;53.480;6.158;2022-12-29T06:42:44;8.30;99.90
52869;DHT22;39100;53.480;6.158;2022-12-29T06:45:10;8.30;99.90
52869;DHT22;39100;53.480;6.158;2022-12-29T06:47:35;8.30;99.90
52869;DHT22;39100;53.480;6.158;2022-12-29T06:50:02;8.20;99.90
52869;DHT22;39100;53.480;6.158;2022-12-29T06:52:27;8.20;99.90
52869;DHT22;39100;53.480;6.158;2022-12-29T06:54:54;8.20;99.90
52869;DHT22;39100;53.480;6.158;2022-12-29T06:57:20;8.20;99.90
52869;DHT22;39100;53.480;6.158;2022-12-29T06:59:45;8.10;99.90
52869;DHT22;39100;53.480;6.158;2022-12-29T07:02:11;8.20;99.90
52869;DHT22;39100;53.480;6.158;2022-12-29T07:04:38;8.10;99.90
52869;DHT22;39100;53.480;6.158;2022-12-29T07:07:04;8.20;99.90
52869;DHT22;39100;53.480;6.158;2022-12-29T07:09:29;8.20;99.90
52869;DHT22;39100;53.480;6.158;2022-12-29T07:11:55;8.20;99.90
52869;DHT22;39100;53.480;6.158;2022-12-29T07:14:20;8.80;99.90
52869;DHT22;39100;53.480;6.158;2022-12-29T07:16:46;8.30;99.90
52869;DHT22;39100;53.480;6.158;2022-12-29T07:19:11;8.30;99.90
52869;DHT22;39100;53.480;6.158;2022-12-29T07:21:38;8.30;99.90
52869;DHT22;39100;53.480;6.158;2022-12-29T07:24:04;8.30;99.90
52869;DHT22;39100;53.480;6.158;2022-12-29T07:26:29;8.40;99.90
52869;DHT22;39100;53.480;6.158;2022-12-29T07:28:55;8.40;99.90
52869;DHT22;39100;53.480;6.158;2022-12-29T07:31:23;8.40;99.90
52869;DHT22;39100;53.480;6.158;2022-12-29T07:33:49;8.40;99.90
52869;DHT22;39100;53.480;6.158;2022-12-29T07:36:17;8.40;99.90
52869;DHT22;39100;53.480;6.158;2022-12-29T07:38:43;8.50;99.90
52869;DHT22;39100;53.480;6.158;2022-12-29T07:41:08;8.40;99.90
52869;DHT22;39100;53.480;6.158;2022-12-29T07:43:34;8.40;99.90
52869;DHT22;39100;53.480;6.158;2022-12-29T07:46:00;8.40;99.90
52869;DHT22;39100;53.480;6.158;2022-12-29T07:48:25;8.40;99.90
52869;DHT22;39100;53.480;6.158;2022-12-29T07:50:52;8.40;99.90
52869;DHT22;39100;53.480;6.158;2022-12-29T07:53:18;8.40;99.90
52869;DHT22;39100;53.480;6.158;2022-12-29T07:55:44;8.50;99.90
52869;DHT22;39100;53.480;6.158;2022-12-29T07:58:10;8.50;99.90
52869;DHT22;39100;53.480;6.158;2022-12-29T08:00:35;8.40;99.90
52869;DHT22;39100;53.480;6.158;2022-12-29T08:03:01;8.40;99.90
52869;DHT22;39100;53.480;6.158;2022-12-29T08:05:27;8.40;99.90
52869;DHT22;39100;53.480;6.158;2022-12-29T08:07:52;8.40;99.90
52869;DHT22;39100;53.480;6.158;2022-12-29T08:10:18;8.40;99.90
52869;DHT22;39100;53.480;6.158;2022-12-29T08:12:44;8.40;99.90
52869;DHT22;39100;53.480;6.158;2022-12-29T08:15:11;8.40;99.90
52869;DHT22;39100;53.480;6.158;2022-12-29T08:17:37;8.40;99.90
52869;DHT22;39100;53.480;6.158;2022-12-29T08:20:03;8.40;99.90
52869;DHT22;39100;53.480;6.158;2022-12-29T08:22:28;8.40;99.90
52869;DHT22;39100;53.480;6.158;2022-12-29T08:24:54;8.40;99.90
52869;DHT22;39100;53.480;6.158;2022-12-29T08:27:20;8.40;99.90
52869;DHT22;39100;53.480;6.158;2022-12-29T08:29:45;8.40;99.90
52869;DHT22;39100;53.480;6.158;2022-12-29T08:32:11;8.40;99.90
52869;DHT22;39100;53.480;6.158;2022-12-29T08:34:37;8.50;99.90
52869;DHT22;39100;53.480;6.158;2022-12-29T08:37:03;8.50;99.90
52869;DHT22;39100;53.480;6.158;2022-12-29T08:39:28;8.50;99.90
52869;DHT22;39100;53.480;6.158;2022-12-29T08:41:54;8.50;99.90
52869;DHT22;39100;53.480;6.158;2022-12-29T08:44:20;8.50;99.90
52869;DHT22;39100;53.480;6.158;2022-12-29T08:46:45;8.50;99.90
52869;DHT22;39100;53.480;6.158;2022-12-29T08:49:11;8.50;99.90
52869;DHT22;39100;53.480;6.158;2022-12-29T08:51:36;8.50;99.90
52869;DHT22;39100;53.480;6.158;2022-12-29T08:54:02;8.50;99.90
52869;DHT22;39100;53.480;6.158;2022-12-29T08:56:28;8.50;99.90
52869;DHT22;39100;53.480;6.158;2022-12-29T08:58:54;8.40;99.90
52869;DHT22;39100;53.480;6.158;2022-12-29T09:01:20;8.40;99.90
52869;DHT22;39100;53.480;6.158;2022-12-29T09:03:46;8.40;99.90
52869;DHT22;39100;53.480;6.158;2022-12-29T09:06:12;8.40;99.90
52869;DHT22;39100;53.480;6.158;2022-12-29T09:08:38;8.50;99.90
52869;DHT22;39100;53.480;6.158;2022-12-29T09:11:11;8.40;99.90
52869;DHT22;39100;53.480;6.158;2022-12-29T09:13:38;8.40;99.90
52869;DHT22;39100;53.480;6.158;2022-12-29T09:16:04;8.30;99.90
52869;DHT22;39100;53.480;6.158;2022-12-29T09:18:30;8.30;99.90
52869;DHT22;39100;53.480;6.158;2022-12-29T09:21:01;8.30;99.90
52869;DHT22;39100;53.480;6.158;2022-12-29T09:23:28;8.30;99.90
52869;DHT22;39100;53.480;6.158;2022-12-29T09:25:53;8.40;99.90
52869;DHT22;39100;53.480;6.158;2022-12-29T09:28:20;8.40;99.90
52869;DHT22;39100;53.480;6.158;2022-12-29T09:30:46;8.60;99.90
52869;DHT22;39100;53.480;6.158;2022-12-29T09:33:12;8.40;99.90
52869;DHT22;39100;53.480;6.158;2022-12-29T09:35:41;8.40;99.90
52869;DHT22;39100;53.480;6.158;2022-12-29T09:38:07;9.10;99.90
52869;DHT22;39100;53.480;6.158;2022-12-29T09:40:36;8.50;99.90
52869;DHT22;39100;53.480;6.158;2022-12-29T09:43:17;8.50;99.90
52869;DHT22;39100;53.480;6.158;2022-12-29T09:45:50;8.50;99.90
52869;DHT22;39100;53.480;6.158;2022-12-29T09:48:23;8.50;99.90
52869;DHT22;39100;53.480;6.158;2022-12-29T09:50:56;8.50;99.90
52869;DHT22;39100;53.480;6.158;2022-12-29T09:53:35;8.50;99.90
52869;DHT22;39100;53.480;6.158;2022-12-29T09:56:03;8.60;99.90
52869;DHT22;39100;53.480;6.158;2022-12-29T09:58:36;8.60;99.90
52869;DHT22;39100;53.480;6.158;2022-12-29T10:01:27;8.60;99.90
52869;DHT22;39100;53.480;6.158;2022-12-29T10:03:58;8.60;99.90
52869;DHT22;39100;53.480;6.158;2022-12-29T10:11:50;8.60;99.90
52869;DHT22;39100;53.480;6.158;2022-12-29T10:14:29;8.60;99.90
52869;DHT22;39100;53.480;6.158;2022-12-29T10:25:22;8.50;99.90
52869;DHT22;39100;53.480;6.158;2022-12-29T10:27:51;8.60;99.90
52869;DHT22;39100;53.480;6.158;2022-12-29T10:30:19;8.70;99.90
52869;DHT22;39100;53.480;6.158;2022-12-29T10:33:11;8.80;99.90
52869;DHT22;39100;53.480;6.158;2022-12-29T10:35:39;9.70;99.90
52869;DHT22;39100;53.480;6.158;2022-12-29T10:41:02;8.90;99.90
52869;DHT22;39100;53.480;6.158;2022-12-29T10:43:30;8.90;99.90
52869;DHT22;39100;53.480;6.158;2022-12-29T10:46:02;8.80;99.90
52869;DHT22;39100;53.480;6.158;2022-12-29T10:48:31;8.80;99.90
52869;DHT22;39100;53.480;6.158;2022-12-29T10:50:59;8.80;99.90
52869;DHT22;39100;53.480;6.158;2022-12-29T10:53:30;8.80;99.90
52869;DHT22;39100;53.480;6.158;2022-12-29T10:55:59;8.80;99.90
52869;DHT22;39100;53.480;6.158;2022-12-29T10:58:26;8.90;99.90
52869;DHT22;39100;53.480;6.158;2022-12-29T11:00:54;9.00;99.90
52869;DHT22;39100;53.480;6.158;2022-12-29T11:06:26;9.00;99.90
52869;DHT22;39100;53.480;6.158;2022-12-29T11:08:57;8.90;99.90
52869;DHT22;39100;53.480;6.158;2022-12-29T11:11:26;8.90;99.90
52869;DHT22;39100;53.480;6.158;2022-12-29T11:13:58;8.80;99.90
52869;DHT22;39100;53.480;6.158;2022-12-29T11:16:32;8.80;99.90
52869;DHT22;39100;53.480;6.158;2022-12-29T11:18:59;8.90;99.90
52869;DHT22;39100;53.480;6.158;2022-12-29T11:21:36;8.90;99.90
52869;DHT22;39100;53.480;6.158;2022-12-29T11:24:20;8.90;99.90
52869;DHT22;39100;53.480;6.158;2022-12-29T11:26:46;8.90;99.90
52869;DHT22;39100;53.480;6.158;2022-12-29T11:29:21;8.90;99.90
52869;DHT22;39100;53.480;6.158;2022-12-29T11:31:52;8.90;99.90
52869;DHT22;39100;53.480;6.158;2022-12-29T11:34:20;8.90;99.90
52869;DHT22;39100;53.480;6.158;2022-12-29T11:36:47;9.00;99.90
52869;DHT22;39100;53.480;6.158;2022-12-29T11:39:26;9.00;99.90
52869;DHT22;39100;53.480;6.158;2022-12-29T11:41:53;9.30;99.90
52869;DHT22;39100;53.480;6.158;2022-12-29T11:44:19;9.60;99.90
52869;DHT22;39100;53.480;6.158;2022-12-29T11:46:48;10.10;99.90
52869;DHT22;39100;53.480;6.158;2022-12-29T11:49:21;10.50;99.90
52869;DHT22;39100;53.480;6.158;2022-12-29T11:51:49;11.00;99.90
52869;DHT22;39100;53.480;6.158;2022-12-29T11:54:29;11.20;99.90
52869;DHT22;39100;53.480;6.158;2022-12-29T11:56:57;11.30;99.90
52869;DHT22;39100;53.480;6.158;2022-12-29T12:01:53;10.90;99.90
52869;DHT22;39100;53.480;6.158;2022-12-29T12:04:21;10.70;99.90
52869;DHT22;39100;53.480;6.158;2022-12-29T12:07:12;10.40;99.90
52869;DHT22;39100;53.480;6.158;2022-12-29T12:09:45;10.30;99.90
52869;DHT22;39100;53.480;6.158;2022-12-29T12:12:27;10.00;99.90
52869;DHT22;39100;53.480;6.158;2022-12-29T12:14:56;9.80;99.90
52869;DHT22;39100;53.480;6.158;2022-12-29T12:17:31;9.70;99.90
52869;DHT22;39100;53.480;6.158;2022-12-29T12:20:17;9.70;99.90
52869;DHT22;39100;53.480;6.158;2022-12-29T12:22:54;9.60;99.90
52869;DHT22;39100;53.480;6.158;2022-12-29T12:25:31;9.50;99.90
52869;DHT22;39100;53.480;6.158;2022-12-29T12:28:24;9.50;99.90
52869;DHT22;39100;53.480;6.158;2022-12-29T12:30:55;9.60;99.90
52869;DHT22;39100;53.480;6.158;2022-12-29T12:33:33;9.70;99.90
52869;DHT22;39100;53.480;6.158;2022-12-29T12:36:26;9.80;99.90
52869;DHT22;39100;53.480;6.158;2022-12-29T12:50:11;10.40;99.90
52869;DHT22;39100;53.480;6.158;2022-12-29T12:58:09;10.40;99.90
52869;DHT22;39100;53.480;6.158;2022-12-29T13:01:10;10.20;99.90
52869;DHT22;39100;53.480;6.158;2022-12-29T13:06:24;9.90;99.90
52869;DHT22;39100;53.480;6.158;2022-12-29T13:09:22;9.80;99.90
52869;DHT22;39100;53.480;6.158;2022-12-29T13:12:27;9.80;99.90
52869;DHT22;39100;53.480;6.158;2022-12-29T13:17:41;9.60;99.90
52869;DHT22;39100;53.480;6.158;2022-12-29T13:20:24;9.70;99.90
52869;DHT22;39100;53.480;6.158;2022-12-29T13:23:13;9.80;99.90
52869;DHT22;39100;53.480;6.158;2022-12-29T13:25:55;9.70;99.90
52869;DHT22;39100;53.480;6.158;2022-12-29T13:31:22;9.70;99.90
52869;DHT22;39100;53.480;6.158;2022-12-29T13:35:06;9.60;99.90
52869;DHT22;39100;53.480;6.158;2022-12-29T13:37:01;9.50;99.90
52869;DHT22;39100;53.480;6.158;2022-12-29T13:39:33;9.50;99.90
52869;DHT22;39100;53.480;6.158;2022-12-29T13:42:02;9.40;99.90
52869;DHT22;39100;53.480;6.158;2022-12-29T13:44:38;9.40;99.90
52869;DHT22;39100;53.480;6.158;2022-12-29T13:47:26;9.50;99.90
52869;DHT22;39100;53.480;6.158;2022-12-29T13:49:53;9.50;99.90
52869;DHT22;39100;53.480;6.158;2022-12-29T13:52:44;9.50;99.90
52869;DHT22;39100;53.480;6.158;2022-12-29T14:03:46;9.30;99.90
52869;DHT22;39100;53.480;6.158;2022-12-29T14:06:27;9.40;99.90
52869;DHT22;39100;53.480;6.158;2022-12-29T14:09:01;9.30;99.90
52869;DHT22;39100;53.480;6.158;2022-12-29T14:11:36;9.60;99.90
52869;DHT22;39100;53.480;6.158;2022-12-29T14:14:19;9.20;99.90
52869;DHT22;39100;53.480;6.158;2022-12-29T14:16:46;9.10;99.90
52869;DHT22;39100;53.480;6.158;2022-12-29T14:19:15;9.00;99.90
52869;DHT22;39100;53.480;6.158;2022-12-29T14:21:51;8.90;99.90
52869;DHT22;39100;53.480;6.158;2022-12-29T14:37:31;8.60;99.90
52869;DHT22;39100;53.480;6.158;2022-12-29T14:42:42;8.40;99.90
52869;DHT22;39100;53.480;6.158;2022-12-29T14:47:47;8.40;99.90
52869;DHT22;39100;53.480;6.158;2022-12-29T14:50:25;9.20;99.90
52869;DHT22;39100;53.480;6.158;2022-12-29T14:53:03;8.40;99.90
52869;DHT22;39100;53.480;6.158;2022-12-29T14:55:46;8.40;99.90
52869;DHT22;39100;53.480;6.158;2022-12-29T15:00:47;8.30;99.90
52869;DHT22;39100;53.480;6.158;2022-12-29T15:08:13;8.20;99.90
52869;DHT22;39100;53.480;6.158;2022-12-29T15:11:15;8.20;99.90
52869;DHT22;39100;53.480;6.158;2022-12-29T15:13:43;8.20;99.90
52869;DHT22;39100;53.480;6.158;2022-12-29T15:16:28;8.20;99.90
52869;DHT22;39100;53.480;6.158;2022-12-29T15:18:54;8.10;99.90
52869;DHT22;39100;53.480;6.158;2022-12-29T15:21:32;8.10;99.90
52869;DHT22;39100;53.480;6.158;2022-12-29T15:23:58;8.10;99.90
52869;DHT22;39100;53.480;6.158;2022-12-29T15:26:39;8.00;99.90
52869;DHT22;39100;53.480;6.158;2022-12-29T15:29:05;8.00;99.90
52869;DHT22;39100;53.480;6.158;2022-12-29T15:31:30;8.00;99.90
52869;DHT22;39100;53.480;6.158;2022-12-29T15:34:22;8.00;99.90
52869;DHT22;39100;53.480;6.158;2022-12-29T15:36:50;8.00;99.90
52869;DHT22;39100;53.480;6.158;2022-12-29T15:39:35;8.00;99.90
52869;DHT22;39100;53.480;6.158;2022-12-29T15:42:15;8.00;99.90
52869;DHT22;39100;53.480;6.158;2022-12-29T15:44:44;7.90;99.90
52869;DHT22;39100;53.480;6.158;2022-12-29T15:49:38;7.90;99.90
52869;DHT22;39100;53.480;6.158;2022-12-29T15:52:10;7.90;99.90
52869;DHT22;39100;53.480;6.158;2022-12-29T15:54:36;8.00;99.90
52869;DHT22;39100;53.480;6.158;2022-12-29T15:57:02;7.90;99.90
52869;DHT22;39100;53.480;6.158;2022-12-29T15:59:30;8.00;99.90
52869;DHT22;39100;53.480;6.158;2022-12-29T16:01:58;7.90;99.90
52869;DHT22;39100;53.480;6.158;2022-12-29T16:04:26;7.90;99.90
52869;DHT22;39100;53.480;6.158;2022-12-29T16:07:04;7.90;99.90
52869;DHT22;39100;53.480;6.158;2022-12-29T16:09:35;7.90;99.90
52869;DHT22;39100;53.480;6.158;2022-12-29T16:12:17;7.90;99.90
52869;DHT22;39100;53.480;6.158;2022-12-29T16:14:46;7.90;99.90
52869;DHT22;39100;53.480;6.158;2022-12-29T16:17:15;7.90;99.90
52869;DHT22;39100;53.480;6.158;2022-12-29T16:19:43;7.90;99.90
52869;DHT22;39100;53.480;6.158;2022-12-29T16:22:41;7.90;99.90
52869;DHT22;39100;53.480;6.158;2022-12-29T16:25:31;7.90;99.90
52869;DHT22;39100;53.480;6.158;2022-12-29T16:27:58;8.40;99.90
52869;DHT22;39100;53.480;6.158;2022-12-29T16:30:30;7.80;99.90
52869;DHT22;39100;53.480;6.158;2022-12-29T16:33:01;7.80;99.90
52869;DHT22;39100;53.480;6.158;2022-12-29T16:35:46;7.80;99.90
52869;DHT22;39100;53.480;6.158;2022-12-29T16:38:20;7.80;99.90
52869;DHT22;39100;53.480;6.158;2022-12-29T16:40:57;7.80;99.90
52869;DHT22;39100;53.480;6.158;2022-12-29T16:43:26;7.80;99.90
52869;DHT22;39100;53.480;6.158;2022-12-29T16:48:20;7.80;99.90
52869;DHT22;39100;53.480;6.158;2022-12-29T16:50:46;7.80;99.90
52869;DHT22;39100;53.480;6.158;2022-12-29T16:56:21;7.70;99.90
52869;DHT22;39100;53.480;6.158;2022-12-29T16:59:24;7.70;99.90
52869;DHT22;39100;53.480;6.158;2022-12-29T17:01:44;7.70;99.90
52869;DHT22;39100;53.480;6.158;2022-12-29T17:04:11;7.70;99.90
52869;DHT22;39100;53.480;6.158;2022-12-29T17:06:37;7.70;99.90
52869;DHT22;39100;53.480;6.158;2022-12-29T17:09:15;7.70;99.90
52869;DHT22;39100;53.480;6.158;2022-12-29T17:11:41;7.70;99.90
52869;DHT22;39100;53.480;6.158;2022-12-29T17:14:34;7.70;99.90
52869;DHT22;39100;53.480;6.158;2022-12-29T17:17:02;7.70;99.90
52869;DHT22;39100;53.480;6.158;2022-12-29T17:19:37;7.70;99.90
52869;DHT22;39100;53.480;6.158;2022-12-29T17:22:15;7.70;99.90
52869;DHT22;39100;53.480;6.158;2022-12-29T17:24:40;7.60;99.90
52869;DHT22;39100;53.480;6.158;2022-12-29T17:27:06;7.70;99.90
52869;DHT22;39100;53.480;6.158;2022-12-29T17:29:39;7.70;99.90
52869;DHT22;39100;53.480;6.158;2022-12-29T17:32:11;7.70;99.90
52869;DHT22;39100;53.480;6.158;2022-12-29T17:34:37;7.70;99.90
52869;DHT22;39100;53.480;6.158;2022-12-29T17:39:49;7.70;99.90
52869;DHT22;39100;53.480;6.158;2022-12-29T17:42:16;7.70;99.90
52869;DHT22;39100;53.480;6.158;2022-12-29T17:44:42;7.70;99.90
52869;DHT22;39100;53.480;6.158;2022-12-29T17:47:10;7.60;99.90
52869;DHT22;39100;53.480;6.158;2022-12-29T17:49:36;7.60;99.90
52869;DHT22;39100;53.480;6.158;2022-12-29T17:52:02;7.70;99.90
52869;DHT22;39100;53.480;6.158;2022-12-29T17:54:29;7.70;99.90
52869;DHT22;39100;53.480;6.158;2022-12-29T17:56:55;7.70;99.90
52869;DHT22;39100;53.480;6.158;2022-12-29T17:59:21;7.80;99.90
52869;DHT22;39100;53.480;6.158;2022-12-29T18:01:48;7.70;99.90
52869;DHT22;39100;53.480;6.158;2022-12-29T18:04:16;7.70;99.90
52869;DHT22;39100;53.480;6.158;2022-12-29T18:06:42;7.70;99.90
52869;DHT22;39100;53.480;6.158;2022-12-29T18:09:09;7.60;99.90
52869;DHT22;39100;53.480;6.158;2022-12-29T18:11:38;7.70;99.90